Valle Azzurra — ICEG — position and weather

sailwx.info

Track history (hours):
 
Tides and Currents Weather Stations Pressure Air Temp Water Temp Dewpoint Dewpoint Depression Visibility Wind Speed Wind Dir Waves Ship Positions

Valle Azzurra

Last reported at 2016-Nov-10 16:19 UTC. Time now 2016-Dec-08 09:57 UTC.
Position N 27°30' W 015°16'.
Warning: this ship's position is 27 days out of date.

Length 183 m; draft 11.1 m.

Type: Tanker. MMSI: 247226600.

Date/timePositionNaut miles runAvg speedWind from/ knotsBaromVisibWave heightAir tempDewpointWater temp
2016-Nov-10 16:19N 27°30' W 015°16'1013.3
2016-Nov-10 15:33N 27°40' W 015°12'5112.8
2016-Nov-10 11:33N 28°28' W 014°52'1312.5
2016-Nov-10 10:33N 28°40' W 014°48'1312.8
2016-Nov-10 09:33N 28°52' W 014°44'  
2016-Nov-05 16:33N 49°48' W 003°29'5612.6
2016-Nov-05 12:05N 50°08' W 002°07'610.2
2016-Nov-05 11:32N 50°09' W 001°59'9 9.7
2016-Nov-05 10:33N 50°12' W 001°45'10 9.8
2016-Nov-05 09:33N 50°14' W 001°30'1110.6
2016-Nov-05 08:33N 50°17' W 001°14'5313.1
2016-Nov-05 04:32N 50°31' E 000°06'5911.9
2016-Nov-04 23:33N 51°03' E 001°25'1414.4
2016-Nov-04 22:33N 51°12' E 001°43'1514.5
2016-Nov-04 21:33N 51°24' E 001°54'1313.3
2016-Nov-04 20:33N 51°34' E 002°08'2511.9
2016-Nov-04 18:28N 51°53' E 002°35'6310.7
2016-Nov-04 12:32N 52°31' E 003°57'29 7.4
2016-Nov-04 08:34N 52°26' E 004°45'3 3.4
2016-Nov-04 07:33N 52°24' E 004°50'0 0.0
2016-Nov-04 06:31N 52°24' E 004°50'  
2016-Nov-01 23:31N 52°24' E 004°50'0 0.0
2016-Nov-01 20:31N 52°24' E 004°50'0 0.0
2016-Nov-01 19:31N 52°24' E 004°50'0 0.0
2016-Nov-01 12:31N 52°24' E 004°50'0 0.0
2016-Nov-01 03:31N 52°24' E 004°50'0 0.0
2016-Nov-01 02:25N 52°24' E 004°50'0 0.0
2016-Nov-01 00:31N 52°24' E 004°50'0 0.0
2016-Oct-31 23:31N 52°24' E 004°50'0 0.3
2016-Oct-31 22:33N 52°24' E 004°49'9 4.3
2016-Oct-31 20:33N 52°28' E 004°36'7 6.7
2016-Oct-31 19:33N 52°28' E 004°25'9 8.7
2016-Oct-31 18:33N 52°29' E 004°11'  
Track history (hours):
 
Tides and Currents Weather Stations Pressure Air Temp Water Temp Dewpoint Dewpoint Depression Visibility Wind Speed Wind Dir Waves Ship Positions

Valle Azzurra

Last reported at 2016-Nov-10 16:19 UTC. Time now 2016-Dec-08 09:57 UTC.
Position N 27°30' W 015°16'.
Warning: this ship's position is 27 days out of date.

Length 183 m; draft 11.1 m.

Type: Tanker. MMSI: 247226600.

Date/timePositionNaut miles runAvg speedWind from/ knotsBaromVisibWave heightAir tempDewpointWater temp
2016-Nov-10 16:19N 27°30' W 015°16'1013.3
2016-Nov-10 15:33N 27°40' W 015°12'5112.8
2016-Nov-10 11:33N 28°28' W 014°52'1312.5
2016-Nov-10 10:33N 28°40' W 014°48'1312.8
2016-Nov-10 09:33N 28°52' W 014°44'  
2016-Nov-05 16:33N 49°48' W 003°29'5612.6
2016-Nov-05 12:05N 50°08' W 002°07'610.2
2016-Nov-05 11:32N 50°09' W 001°59'9 9.7
2016-Nov-05 10:33N 50°12' W 001°45'10 9.8
2016-Nov-05 09:33N 50°14' W 001°30'1110.6
2016-Nov-05 08:33N 50°17' W 001°14'5313.1
2016-Nov-05 04:32N 50°31' E 000°06'5911.9
2016-Nov-04 23:33N 51°03' E 001°25'1414.4
2016-Nov-04 22:33N 51°12' E 001°43'1514.5
2016-Nov-04 21:33N 51°24' E 001°54'1313.3
2016-Nov-04 20:33N 51°34' E 002°08'2511.9
2016-Nov-04 18:28N 51°53' E 002°35'6310.7
2016-Nov-04 12:32N 52°31' E 003°57'29 7.4
2016-Nov-04 08:34N 52°26' E 004°45'3 3.4
2016-Nov-04 07:33N 52°24' E 004°50'0 0.0
2016-Nov-04 06:31N 52°24' E 004°50'  
2016-Nov-01 23:31N 52°24' E 004°50'0 0.0
2016-Nov-01 20:31N 52°24' E 004°50'0 0.0
2016-Nov-01 19:31N 52°24' E 004°50'0 0.0
2016-Nov-01 12:31N 52°24' E 004°50'0 0.0
2016-Nov-01 03:31N 52°24' E 004°50'0 0.0
2016-Nov-01 02:25N 52°24' E 004°50'0 0.0
2016-Nov-01 00:31N 52°24' E 004°50'0 0.0
2016-Oct-31 23:31N 52°24' E 004°50'0 0.3
2016-Oct-31 22:33N 52°24' E 004°49'9 4.3
2016-Oct-31 20:33N 52°28' E 004°36'7 6.7
2016-Oct-31 19:33N 52°28' E 004°25'9 8.7
2016-Oct-31 18:33N 52°29' E 004°11'  

Dump ship's entire track history